الصفحة الرئيسية
METAR-TAF:

METAR-TAF

مطار :

مطار آدم عدي الدولي

مقديشو, الصومال

دائرة عرض: 02-02N, خط طول: 045-21E, ارتفاع: 9 متر

مراقبة الطقس الحالي

تاريخ ووقت الإصدار 12ساعات و 31 دقيقة قبل الساعة 14:00UTC
ريح 14 عقدة من الجنوب/الجنوب الغربي
درجة الحرارة 28°درجة مئوية
الرطوبة 94%
ضغط 1009 hPa
الرؤية 10 كم أو أكثر
غيوم متفرقة على ارتفاع 2200 قدم

METAR: HCMM 181400Z 21014KT 9999 SCT022 28/27 Q1009

زمن: 05:31 (02:31 UTC)

توقعات

تاريخ ووقت الإصدار 15ساعات و 31 دقيقة قبل الساعة 11:00UTC
التوقعات صالحة من18 الساعة 12 UTC إلى 19 الساعة 18 UTC
ريح 16 عقدة من الجنوب الغربي
الرؤية 10 كم أو أكثر
غيوم مفككة على ارتفاع 2400 قدم
أصبح
من 18 الساعة 18 UTC إلى 18 الساعة 21 UTC
ريح 10 عقدة من الجنوب/الجنوب الغربي
غيوم متفرقة على ارتفاع 2000 قدم
أصبح
من 19 الساعة 03 UTC إلى 19 الساعة 06 UTC
غيوم مفككة على ارتفاع 2000 قدم

TAF: HCMM 181100Z 1812/1918 22016KT 9999 BKN024 BECMG 1818/1821 20010KT SCT020 BECMG 1903/1906 BKN020

أرصاد الطقس والتوقعات من أكثر من 4000 مطار (تقارير الطقس للمطار METAR والتنبؤ بالطقس بالمطارTAF).

المحطات المتاحة هي النقط الصفراء والحمراء على الخريطة.

حرك المؤشر فوق النقطة لمعرفة اسم المحطة.

ثم انقر لمعرفة أرصاد وتوقعات الطقس.

لتغيير الخارطة: اضغط على الأزرار الخضراء مع رمز الصليب الأسود للتكبير. على الزر الأخضر مع شرطة للتصغير، أو على الأسهم الخضراء للخرائط المجاورة.


METAR-TAF: